Auburn, Washington
Current Conditions -  °F | °C
As of 11:53 PM on Friday 31 Oct 2014 (Local Time) from KSEA Reporting Station
Haze Haze  
Wind Chill: 50°   Ceiling: 1300
Heat Index: 50°   Visibility: 6mi
Dew Point: 48°   Wind: 5mph
Humidity: 93%   Direction: 110°ESE
Pressure: 29.87"   Gusts: NA
Location:  47.31°N, 122.23°W
Report Text: KSEA 010653Z 11004KT 6SM BR FEW003 BKN013 10/09 A2987 RMK AO2 SLP123 T01000089
Loading
Personal Weather Stations






























Interactive Weather Map
Tropical Storm Tracking
New forecast layout! Learn more

10-Day Weather Forecast

Advertisements
Track Severe Weather on mobile